Terminal Aerodrome Forecast
Issued by NWS Sterling, VA

Current Version | Previous Version | Text Only | Print | Product List | Glossary On
Versions: 1 2 3 4 5 6 7 8 9 10 11 12 13 14 15 16 17 18 19
000
FTUS41 KLWX 041356 AAA
TAFCHO
TAF AMD
KCHO 041356Z 0414/0512 00000KT 3SM BR OVC030
     FM041600 24004KT P6SM -SHRA VCTS BKN050CB
     FM042200 30004KT P6SM BKN050
     FM050400 00000KT 4SM BR BKN150
     FM050700 00000KT 3SM BR BKN250
     FM051000 00000KT 1 1/2SM BR BKN200=

USA.gov is the U.S. government's official web portal to all federal, state and local government web resources and services.